createdAt,value
2023-11-22T00:02:19.478Z,10.82
2023-11-22T00:04:46.670Z,10.84
2023-11-22T00:07:13.753Z,10.83
2023-11-22T00:09:40.881Z,10.82
2023-11-22T00:12:09.807Z,10.81
2023-11-22T00:14:37.389Z,10.79
2023-11-22T00:17:05.318Z,10.78
2023-11-22T00:19:33.621Z,10.78
2023-11-22T00:22:00.728Z,10.82
2023-11-22T00:24:27.817Z,10.87
2023-11-22T00:26:54.870Z,10.90
2023-11-22T00:29:23.307Z,10.91
2023-11-22T00:31:50.268Z,10.90
2023-11-22T00:34:21.135Z,10.91
2023-11-22T00:36:50.051Z,10.92
2023-11-22T00:39:17.788Z,10.93
2023-11-22T00:41:48.092Z,10.94
2023-11-22T00:44:15.174Z,10.94
2023-11-22T00:46:43.726Z,10.90
2023-11-22T00:49:10.850Z,10.86
2023-11-22T00:51:38.013Z,10.82
2023-11-22T00:54:05.963Z,10.70
2023-11-22T00:56:33.395Z,10.67
2023-11-22T00:59:05.211Z,10.62
2023-11-22T01:01:33.054Z,10.56
2023-11-22T01:04:01.666Z,10.57
2023-11-22T01:06:30.202Z,10.61
2023-11-22T01:08:57.472Z,10.66
2023-11-22T01:11:24.549Z,10.72
2023-11-22T01:13:51.612Z,10.76
2023-11-22T01:16:18.669Z,10.81
2023-11-22T01:18:47.573Z,10.82
2023-11-22T01:21:17.337Z,10.83
2023-11-22T01:23:46.300Z,10.82
2023-11-22T01:26:13.446Z,10.80
2023-11-22T01:28:45.287Z,10.80
2023-11-22T01:31:14.145Z,10.76
2023-11-22T01:33:41.480Z,10.72
2023-11-22T01:36:09.137Z,10.71
2023-11-22T01:38:40.389Z,10.71
2023-11-22T01:41:08.208Z,10.68
2023-11-22T01:43:35.160Z,10.63
2023-11-22T01:46:02.480Z,10.59
2023-11-22T01:48:29.632Z,10.60
2023-11-22T01:50:56.850Z,10.60
2023-11-22T01:53:25.037Z,10.61
2023-11-22T01:55:53.573Z,10.60
2023-11-22T01:58:21.060Z,10.61
2023-11-22T02:00:50.988Z,10.62
2023-11-22T02:03:18.479Z,10.61
2023-11-22T02:05:46.490Z,10.62
2023-11-22T02:08:14.395Z,10.58
2023-11-22T02:10:41.966Z,10.54
2023-11-22T02:13:11.322Z,10.54
2023-11-22T02:15:39.616Z,10.55
2023-11-22T02:18:13.653Z,10.55
2023-11-22T02:20:42.663Z,10.55
2023-11-22T02:23:12.565Z,10.55
2023-11-22T02:25:40.213Z,10.56
2023-11-22T02:28:10.030Z,10.55
2023-11-22T02:30:37.772Z,10.53
2023-11-22T02:33:06.120Z,10.53
2023-11-22T02:35:34.160Z,10.52
2023-11-22T02:38:01.840Z,10.50
2023-11-22T02:40:30.281Z,10.51
2023-11-22T02:43:02.132Z,10.49
2023-11-22T02:45:30.026Z,10.49
2023-11-22T02:47:57.184Z,10.47
2023-11-22T02:50:24.375Z,10.46
2023-11-22T02:52:51.383Z,10.44
2023-11-22T02:55:18.612Z,10.41
2023-11-22T02:57:47.898Z,10.40
2023-11-22T03:00:15.988Z,10.42
2023-11-22T03:02:43.156Z,10.42
2023-11-22T03:05:11.401Z,10.40
2023-11-22T03:07:38.758Z,10.39
2023-11-22T03:10:08.695Z,10.38
2023-11-22T03:12:35.839Z,10.38
2023-11-22T03:15:04.798Z,10.37
2023-11-22T03:17:34.377Z,10.35
2023-11-22T03:20:01.975Z,10.35
2023-11-22T03:22:32.024Z,10.34
2023-11-22T03:25:02.391Z,10.34
2023-11-22T03:27:29.394Z,10.34
2023-11-22T03:29:56.400Z,10.33
2023-11-22T03:32:24.828Z,10.33
2023-11-22T03:34:52.230Z,10.30
2023-11-22T03:37:19.425Z,10.31
2023-11-22T03:39:49.902Z,10.31
2023-11-22T03:42:20.147Z,10.33
2023-11-22T03:44:47.184Z,10.31
2023-11-22T03:47:16.870Z,10.31
2023-11-22T03:49:47.424Z,10.32
2023-11-22T03:52:15.612Z,10.33
2023-11-22T03:54:42.614Z,10.35
2023-11-22T03:57:09.690Z,10.38
2023-11-22T03:59:36.934Z,10.39
2023-11-22T04:02:04.132Z,10.39
2023-11-22T04:04:31.638Z,10.41
2023-11-22T04:07:00.015Z,10.43
2023-11-22T04:09:27.019Z,10.41
2023-11-22T04:11:54.082Z,10.45
2023-11-22T04:14:23.066Z,10.44
2023-11-22T04:16:50.643Z,10.39
2023-11-22T04:19:17.827Z,10.35
2023-11-22T04:21:45.619Z,10.22
2023-11-22T04:24:14.024Z,10.06
2023-11-22T04:26:41.081Z,9.98
2023-11-22T04:29:08.128Z,9.95
2023-11-22T04:31:35.266Z,9.98
2023-11-22T04:34:02.389Z,9.98
2023-11-22T04:36:30.620Z,9.92
2023-11-22T04:38:57.690Z,9.86
2023-11-22T04:41:27.535Z,9.82
2023-11-22T04:43:54.697Z,9.81
2023-11-22T04:46:21.819Z,9.79
2023-11-22T04:48:52.409Z,9.79
2023-11-22T04:51:19.828Z,9.79
2023-11-22T04:53:46.901Z,9.82
2023-11-22T04:56:14.524Z,9.89
2023-11-22T04:58:43.148Z,9.94
2023-11-22T05:01:13.249Z,9.99
2023-11-22T05:03:40.363Z,10.03
2023-11-22T05:06:08.185Z,10.08
2023-11-22T05:08:35.805Z,10.11
2023-11-22T05:11:04.261Z,10.14
2023-11-22T05:13:31.392Z,10.14
2023-11-22T05:15:59.876Z,10.16
2023-11-22T05:18:27.042Z,10.17
2023-11-22T05:20:54.140Z,10.16
2023-11-22T05:23:21.383Z,10.18
2023-11-22T05:25:48.706Z,10.19
2023-11-22T05:28:15.652Z,10.20
2023-11-22T05:30:42.911Z,10.19
2023-11-22T05:33:11.378Z,10.22
2023-11-22T05:35:38.428Z,10.24
2023-11-22T05:38:05.456Z,10.22
2023-11-22T05:40:32.419Z,10.23
2023-11-22T05:42:59.448Z,10.25
2023-11-22T05:45:26.445Z,10.28
2023-11-22T05:47:54.035Z,10.30
2023-11-22T05:50:23.052Z,10.34
2023-11-22T05:52:50.094Z,10.33
2023-11-22T05:55:19.411Z,10.31
2023-11-22T05:57:46.424Z,10.30
2023-11-22T06:00:15.552Z,10.33
2023-11-22T06:02:42.945Z,10.35
2023-11-22T06:05:11.124Z,10.38
2023-11-22T06:07:39.679Z,10.40
2023-11-22T06:10:07.681Z,10.40
2023-11-22T06:12:34.775Z,10.41
2023-11-22T06:15:01.708Z,10.39
2023-11-22T06:17:30.958Z,10.33
2023-11-22T06:19:58.088Z,10.35
2023-11-22T06:22:25.073Z,10.42
2023-11-22T06:24:53.943Z,10.51
2023-11-22T06:27:21.772Z,10.58
2023-11-22T06:29:48.823Z,10.66
2023-11-22T06:32:16.002Z,10.74
2023-11-22T06:34:43.309Z,10.77
2023-11-22T06:37:10.299Z,10.78
2023-11-22T06:39:38.466Z,10.75
2023-11-22T06:42:07.616Z,10.70
2023-11-22T06:44:35.419Z,10.70
2023-11-22T06:47:03.140Z,10.66
2023-11-22T06:49:30.317Z,10.69
2023-11-22T06:51:57.578Z,10.75
2023-11-22T06:54:24.569Z,10.80
2023-11-22T06:56:52.438Z,10.86
2023-11-22T06:59:20.945Z,10.92
2023-11-22T07:01:48.080Z,10.98
2023-11-22T07:04:15.214Z,11.04
2023-11-22T07:06:43.968Z,11.08
2023-11-22T07:09:11.768Z,11.12
2023-11-22T07:11:38.895Z,11.16
2023-11-22T07:14:06.744Z,11.19
2023-11-22T07:16:35.314Z,11.24
2023-11-22T07:19:07.910Z,11.28
2023-11-22T07:21:38.956Z,11.32
2023-11-22T07:24:10.316Z,11.39
2023-11-22T07:26:38.497Z,11.46
2023-11-22T07:29:07.462Z,11.55
2023-11-22T07:31:37.177Z,11.60
2023-11-22T07:34:04.173Z,11.66
2023-11-22T07:36:31.910Z,11.69
2023-11-22T07:39:00.494Z,11.72
2023-11-22T07:41:27.860Z,11.74
2023-11-22T07:43:54.967Z,11.75
2023-11-22T07:46:22.026Z,11.78
2023-11-22T07:48:50.706Z,11.79
2023-11-22T07:51:18.078Z,11.81
2023-11-22T07:53:45.602Z,11.81
2023-11-22T07:56:13.013Z,11.81
2023-11-22T07:58:40.423Z,11.81
2023-11-22T08:01:14.246Z,11.84
2023-11-22T08:03:47.812Z,11.85
2023-11-22T08:06:18.388Z,11.86
2023-11-22T08:08:47.425Z,11.88
2023-11-22T08:11:18.981Z,11.90
2023-11-22T08:13:46.761Z,11.95
2023-11-22T08:16:17.164Z,11.97
2023-11-22T08:18:44.898Z,11.92
2023-11-22T08:21:12.810Z,11.93
2023-11-22T08:23:41.330Z,11.96
2023-11-22T08:26:09.880Z,12.00
2023-11-22T08:28:37.132Z,12.04
2023-11-22T08:31:05.484Z,12.07
2023-11-22T08:33:32.868Z,12.11
2023-11-22T08:36:02.164Z,12.17
2023-11-22T08:38:29.269Z,12.23
2023-11-22T08:40:57.832Z,12.27
2023-11-22T08:43:27.014Z,12.34
2023-11-22T08:46:01.403Z,12.39
2023-11-22T08:48:38.591Z,12.45
2023-11-22T08:51:09.169Z,12.53
2023-11-22T08:53:36.735Z,12.62
2023-11-22T08:56:10.704Z,12.70
2023-11-22T08:58:38.316Z,12.79
2023-11-22T09:01:05.647Z,12.87
2023-11-22T09:03:34.081Z,12.95
2023-11-22T09:06:01.568Z,13.05
2023-11-22T09:08:31.341Z,13.12
2023-11-22T09:10:58.672Z,13.18
2023-11-22T09:13:27.074Z,13.24
2023-11-22T09:15:54.060Z,13.26
2023-11-22T09:18:23.842Z,13.30
2023-11-22T09:20:50.928Z,13.37
2023-11-22T09:23:18.380Z,13.41
2023-11-22T09:25:45.493Z,13.45
2023-11-22T09:28:12.459Z,13.50
2023-11-22T09:30:42.421Z,13.53
2023-11-22T09:33:11.891Z,13.60
2023-11-22T09:35:40.707Z,13.66
2023-11-22T09:38:17.022Z,13.71
2023-11-22T09:40:46.571Z,13.76
2023-11-22T09:43:18.356Z,13.79
2023-11-22T09:45:49.712Z,13.81
2023-11-22T09:48:21.650Z,13.85
2023-11-22T09:50:54.313Z,13.88
2023-11-22T09:53:32.860Z,13.89
2023-11-22T09:56:00.287Z,13.91
2023-11-22T09:58:31.092Z,13.93
2023-11-22T10:01:01.139Z,13.95
2023-11-22T10:03:32.363Z,13.95
2023-11-22T10:06:00.380Z,13.99
2023-11-22T10:08:28.517Z,13.97
2023-11-22T10:10:55.840Z,13.93
2023-11-22T10:13:23.455Z,13.88
2023-11-22T10:15:51.213Z,13.82
2023-11-22T10:18:20.266Z,13.80
2023-11-22T10:20:50.550Z,13.79
2023-11-22T10:23:19.164Z,13.76
2023-11-22T10:25:48.987Z,13.75
2023-11-22T10:28:16.111Z,13.77
2023-11-22T10:30:43.408Z,13.80
2023-11-22T10:33:13.574Z,13.87
2023-11-22T10:35:43.761Z,13.90
2023-11-22T10:38:11.772Z,13.84
2023-11-22T10:40:39.407Z,13.79
2023-11-22T10:43:09.103Z,13.76
2023-11-22T10:45:38.387Z,13.73
2023-11-22T10:48:06.467Z,13.65
2023-11-22T10:50:33.609Z,13.55
2023-11-22T10:53:07.317Z,13.48
2023-11-22T10:55:36.132Z,13.42
2023-11-22T10:58:04.501Z,13.40
2023-11-22T11:00:33.683Z,13.31
2023-11-22T11:03:03.459Z,13.21
2023-11-22T11:05:32.626Z,13.13
2023-11-22T11:08:04.273Z,13.09
2023-11-22T11:10:32.708Z,13.08
2023-11-22T11:13:00.846Z,13.01
2023-11-22T11:15:28.694Z,12.88
2023-11-22T11:17:56.164Z,12.81
2023-11-22T11:20:24.970Z,12.82
2023-11-22T11:22:54.169Z,12.79
2023-11-22T11:25:24.161Z,12.72
2023-11-22T11:28:00.414Z,12.69
2023-11-22T11:30:47.228Z,12.68
2023-11-22T11:33:18.399Z,12.65
2023-11-22T11:35:48.779Z,12.63
2023-11-22T11:38:18.349Z,12.64
2023-11-22T11:40:49.376Z,12.60
2023-11-22T11:43:21.303Z,12.55
2023-11-22T11:45:48.346Z,12.55
2023-11-22T11:48:19.478Z,12.53
2023-11-22T11:50:47.721Z,12.47
2023-11-22T11:53:14.947Z,12.44
2023-11-22T11:55:42.147Z,12.45
2023-11-22T11:58:10.617Z,12.42
2023-11-22T12:00:41.684Z,12.39
2023-11-22T12:03:11.008Z,12.36
2023-11-22T12:05:38.581Z,12.33
2023-11-22T12:08:06.109Z,12.28
2023-11-22T12:10:33.564Z,12.29
2023-11-22T12:13:01.359Z,12.24
2023-11-22T12:15:30.545Z,12.23
2023-11-22T12:17:59.695Z,12.23
2023-11-22T12:20:32.358Z,12.23
2023-11-22T12:23:01.687Z,12.25
2023-11-22T12:25:28.953Z,12.26
2023-11-22T12:27:56.464Z,12.32
2023-11-22T12:30:33.372Z,12.33
2023-11-22T12:33:04.415Z,12.28
2023-11-22T12:35:33.567Z,12.29
2023-11-22T12:38:01.548Z,12.30
2023-11-22T12:40:29.358Z,12.31
2023-11-22T12:42:57.008Z,12.27
2023-11-22T12:45:25.775Z,12.30
2023-11-22T12:47:55.897Z,12.31
2023-11-22T12:50:34.274Z,12.33
2023-11-22T12:53:09.669Z,12.33
2023-11-22T12:55:37.946Z,12.34
2023-11-22T12:58:05.021Z,12.34
2023-11-22T13:00:32.478Z,12.41
2023-11-22T13:03:03.768Z,12.48
2023-11-22T13:05:32.396Z,12.49
2023-11-22T13:08:00.965Z,12.51
2023-11-22T13:10:30.721Z,12.52
2023-11-22T13:12:59.645Z,12.51
2023-11-22T13:15:29.967Z,12.49
2023-11-22T13:17:57.723Z,12.47
2023-11-22T13:20:27.369Z,12.45
2023-11-22T13:22:54.835Z,12.33
2023-11-22T13:25:22.106Z,12.24
2023-11-22T13:27:49.810Z,12.18
2023-11-22T13:30:18.961Z,12.16
2023-11-22T13:32:46.129Z,12.11
2023-11-22T13:35:16.292Z,12.07
2023-11-22T13:37:45.387Z,11.99
2023-11-22T13:40:17.388Z,11.97
2023-11-22T13:42:46.024Z,11.87
2023-11-22T13:45:18.171Z,11.81
2023-11-22T13:47:48.064Z,11.74
2023-11-22T13:50:20.358Z,11.71
2023-11-22T13:52:49.496Z,11.66
2023-11-22T13:55:18.815Z,11.63
2023-11-22T13:57:45.770Z,11.61
2023-11-22T14:00:36.667Z,11.59
2023-11-22T14:03:08.901Z,11.56
2023-11-22T14:05:39.524Z,11.54
2023-11-22T14:08:08.674Z,11.55
2023-11-22T14:10:35.858Z,11.51
2023-11-22T14:13:04.364Z,11.48
2023-11-22T14:15:31.996Z,11.43
2023-11-22T14:17:59.405Z,11.40
2023-11-22T14:20:26.864Z,11.38
2023-11-22T14:22:54.264Z,11.32
2023-11-22T14:25:22.714Z,11.27
2023-11-22T14:27:54.314Z,11.29
2023-11-22T14:30:22.893Z,11.31
2023-11-22T14:32:52.518Z,11.25
2023-11-22T14:35:20.084Z,11.19
2023-11-22T14:37:47.251Z,11.17
2023-11-22T14:40:18.378Z,11.16
2023-11-22T14:42:49.046Z,11.11
2023-11-22T14:45:16.426Z,11.17
2023-11-22T14:47:46.085Z,11.21
2023-11-22T14:50:15.873Z,11.22
2023-11-22T14:52:44.296Z,11.17
2023-11-22T14:55:13.726Z,11.14
2023-11-22T14:57:42.027Z,11.16
2023-11-22T15:00:15.085Z,11.19
2023-11-22T15:02:49.011Z,11.18
2023-11-22T15:05:16.188Z,11.17
2023-11-22T15:07:43.751Z,11.17
2023-11-22T15:10:11.218Z,11.18
2023-11-22T15:12:38.427Z,11.19
2023-11-22T15:15:06.029Z,11.17
2023-11-22T15:17:34.504Z,11.18
2023-11-22T15:20:01.759Z,11.15
2023-11-22T15:22:28.793Z,11.14
2023-11-22T15:24:55.884Z,11.13
2023-11-22T15:27:26.201Z,11.12
2023-11-22T15:29:53.690Z,11.11
2023-11-22T15:32:20.854Z,11.11
2023-11-22T15:34:49.338Z,11.08
2023-11-22T15:37:17.916Z,11.08
2023-11-22T15:39:45.231Z,11.04
2023-11-22T15:42:13.029Z,11.02
2023-11-22T15:44:40.019Z,11.03
2023-11-22T15:47:12.884Z,10.98
2023-11-22T15:49:42.146Z,11.02
2023-11-22T15:52:10.842Z,10.99
2023-11-22T15:54:38.690Z,10.99
2023-11-22T15:57:06.153Z,10.99
2023-11-22T15:59:33.536Z,11.04
2023-11-22T16:02:00.617Z,11.02
2023-11-22T16:04:27.728Z,11.01
2023-11-22T16:06:55.724Z,10.99
2023-11-22T16:09:24.121Z,11.04
2023-11-22T16:11:51.590Z,11.07
2023-11-22T16:14:18.746Z,11.11
2023-11-22T16:16:46.302Z,11.09
2023-11-22T16:19:13.636Z,11.09
2023-11-22T16:21:40.907Z,11.05
2023-11-22T16:24:08.533Z,11.02
2023-11-22T16:26:38.524Z,10.99
2023-11-22T16:29:05.539Z,10.96
2023-11-22T16:31:32.654Z,10.93
2023-11-22T16:34:00.526Z,10.90
2023-11-22T16:36:28.023Z,10.88
2023-11-22T16:38:56.088Z,10.83
2023-11-22T16:41:25.952Z,10.77
2023-11-22T16:43:54.729Z,10.70
2023-11-22T16:46:21.889Z,10.68
2023-11-22T16:48:54.876Z,10.64
2023-11-22T16:51:22.085Z,10.60
2023-11-22T16:53:49.838Z,10.57
2023-11-22T16:56:19.563Z,10.53
2023-11-22T16:58:46.801Z,10.51
2023-11-22T17:01:15.215Z,10.49
2023-11-22T17:03:43.139Z,10.44
2023-11-22T17:06:10.351Z,10.46
2023-11-22T17:08:37.400Z,10.44
2023-11-22T17:11:04.849Z,10.43
2023-11-22T17:13:32.005Z,10.45
2023-11-22T17:15:59.214Z,10.43
2023-11-22T17:18:27.706Z,10.39
2023-11-22T17:20:55.949Z,10.33
2023-11-22T17:23:22.926Z,10.31
2023-11-22T17:25:49.945Z,10.32
2023-11-22T17:28:16.902Z,10.33
2023-11-22T17:30:43.908Z,10.33
2023-11-22T17:33:10.989Z,10.32
2023-11-22T17:35:39.450Z,10.31
2023-11-22T17:38:06.458Z,10.27
2023-11-22T17:40:33.584Z,10.23
2023-11-22T17:43:02.250Z,10.14
2023-11-22T17:45:29.546Z,10.13
2023-11-22T17:47:56.711Z,10.11
2023-11-22T17:50:23.883Z,10.08
2023-11-22T17:52:52.247Z,10.05
2023-11-22T17:55:20.919Z,10.06
2023-11-22T17:57:48.033Z,10.03
2023-11-22T18:00:15.882Z,10.00
2023-11-22T18:02:43.048Z,10.00
2023-11-22T18:05:10.340Z,10.03
2023-11-22T18:07:38.911Z,10.03
2023-11-22T18:10:07.665Z,10.05
2023-11-22T18:12:34.780Z,10.05
2023-11-22T18:15:01.884Z,10.06
2023-11-22T18:17:29.000Z,10.03
2023-11-22T18:19:56.133Z,10.00
2023-11-22T18:22:24.382Z,9.96
2023-11-22T18:24:51.372Z,9.89
2023-11-22T18:27:19.734Z,9.86
2023-11-22T18:29:46.841Z,9.81
2023-11-22T18:32:14.356Z,9.75
2023-11-22T18:34:42.074Z,9.74
2023-11-22T18:37:09.276Z,9.70
2023-11-22T18:39:36.353Z,9.67
2023-11-22T18:42:04.461Z,9.66
2023-11-22T18:44:37.566Z,9.66
2023-11-22T18:47:05.039Z,9.64
2023-11-22T18:49:32.292Z,9.63
2023-11-22T18:51:59.260Z,9.65
2023-11-22T18:54:26.391Z,9.62
2023-11-22T18:56:53.664Z,9.63
2023-11-22T18:59:20.861Z,9.65
2023-11-22T19:01:49.667Z,9.65
2023-11-22T19:04:16.724Z,9.64
2023-11-22T19:06:43.951Z,9.60
2023-11-22T19:09:14.069Z,9.61
2023-11-22T19:11:43.820Z,9.59
2023-11-22T19:14:11.362Z,9.59
2023-11-22T19:16:38.451Z,9.61
2023-11-22T19:19:07.058Z,9.66
2023-11-22T19:21:34.436Z,9.68
2023-11-22T19:24:02.499Z,9.67
2023-11-22T19:26:34.289Z,9.69
2023-11-22T19:29:02.211Z,9.67
2023-11-22T19:31:29.487Z,9.65
2023-11-22T19:33:57.626Z,9.65
2023-11-22T19:36:27.609Z,9.66
2023-11-22T19:38:55.257Z,9.70
2023-11-22T19:41:23.057Z,9.65
2023-11-22T19:43:50.315Z,9.61
2023-11-22T19:46:17.715Z,9.58
2023-11-22T19:48:45.175Z,9.53
2023-11-22T19:51:12.944Z,9.54
2023-11-22T19:53:42.890Z,9.50
2023-11-22T19:56:10.199Z,9.53
2023-11-22T19:58:37.392Z,9.55
2023-11-22T20:01:07.012Z,9.52
2023-11-22T20:03:34.331Z,9.51
2023-11-22T20:06:01.906Z,9.49
2023-11-22T20:08:29.004Z,9.47
2023-11-22T20:10:57.536Z,9.46
2023-11-22T20:13:24.511Z,9.47
2023-11-22T20:15:52.990Z,9.49
2023-11-22T20:18:20.197Z,9.46
2023-11-22T20:20:47.455Z,9.45
2023-11-22T20:23:18.208Z,9.44
2023-11-22T20:25:45.541Z,9.42
2023-11-22T20:28:14.788Z,9.41
2023-11-22T20:30:42.068Z,9.40
2023-11-22T20:33:09.650Z,9.42
2023-11-22T20:35:36.731Z,9.45
2023-11-22T20:38:03.839Z,9.43
2023-11-22T20:40:30.881Z,9.41
2023-11-22T20:42:59.194Z,9.34
2023-11-22T20:45:27.624Z,9.30
2023-11-22T20:47:55.365Z,9.27
2023-11-22T20:50:24.814Z,9.22
2023-11-22T20:52:52.052Z,9.20
2023-11-22T20:55:19.147Z,9.17
2023-11-22T20:57:46.132Z,9.09
2023-11-22T21:00:15.675Z,9.02
2023-11-22T21:02:45.465Z,8.99
2023-11-22T21:05:13.079Z,8.98
2023-11-22T21:07:40.938Z,8.97
2023-11-22T21:10:08.649Z,8.98
2023-11-22T21:12:35.595Z,8.93
2023-11-22T21:15:03.229Z,8.92
2023-11-22T21:17:40.600Z,8.90
2023-11-22T21:20:13.923Z,8.89
2023-11-22T21:22:41.499Z,8.84
2023-11-22T21:25:11.870Z,8.78
2023-11-22T21:27:41.626Z,8.73
2023-11-22T21:30:11.204Z,8.65
2023-11-22T21:32:38.476Z,8.62
2023-11-22T21:35:06.726Z,8.53
2023-11-22T21:37:35.272Z,8.50
2023-11-22T21:40:05.191Z,8.46
2023-11-22T21:42:33.549Z,8.46
2023-11-22T21:45:00.544Z,8.38
2023-11-22T21:47:27.710Z,8.38
2023-11-22T21:49:54.681Z,8.37
2023-11-22T21:52:21.629Z,8.36
2023-11-22T21:54:50.128Z,8.32
2023-11-22T21:57:17.924Z,8.31
2023-11-22T21:59:44.899Z,8.29
2023-11-22T22:02:11.962Z,8.32
2023-11-22T22:04:39.290Z,8.30
2023-11-22T22:07:07.092Z,8.27
2023-11-22T22:09:35.258Z,8.26
2023-11-22T22:12:04.114Z,8.19
2023-11-22T22:14:33.481Z,8.16
2023-11-22T22:17:03.385Z,8.14
2023-11-22T22:19:30.527Z,8.14
2023-11-22T22:21:57.644Z,8.13
2023-11-22T22:24:24.596Z,8.10
2023-11-22T22:26:52.460Z,8.11
2023-11-22T22:29:21.005Z,8.11
2023-11-22T22:31:48.092Z,8.13
2023-11-22T22:34:15.106Z,8.12
2023-11-22T22:36:42.104Z,8.14
2023-11-22T22:39:10.441Z,8.16
2023-11-22T22:41:39.020Z,8.17
2023-11-22T22:44:07.061Z,8.20
2023-11-22T22:46:39.781Z,8.17
2023-11-22T22:49:07.275Z,8.14
2023-11-22T22:51:34.681Z,8.12
2023-11-22T22:54:02.192Z,8.10
2023-11-22T22:56:29.170Z,8.09
2023-11-22T22:58:56.292Z,8.11
2023-11-22T23:01:23.342Z,8.11
2023-11-22T23:03:51.924Z,8.14
2023-11-22T23:06:23.053Z,8.17
2023-11-22T23:08:53.263Z,8.17
2023-11-22T23:11:20.761Z,8.20
2023-11-22T23:13:48.291Z,8.20
2023-11-22T23:16:15.394Z,8.21
2023-11-22T23:18:43.346Z,8.19
2023-11-22T23:21:12.993Z,8.23
2023-11-22T23:23:39.994Z,8.20
2023-11-22T23:26:07.048Z,8.20
2023-11-22T23:28:36.161Z,8.17
2023-11-22T23:31:06.088Z,8.20
2023-11-22T23:33:33.256Z,8.23
2023-11-22T23:36:05.070Z,8.25
2023-11-22T23:38:34.559Z,8.24
2023-11-22T23:41:02.096Z,8.22
2023-11-22T23:43:35.252Z,8.20
2023-11-22T23:46:03.068Z,8.21
2023-11-22T23:48:30.198Z,8.21
2023-11-22T23:50:57.332Z,8.17
2023-11-22T23:53:24.340Z,8.15
2023-11-22T23:55:52.694Z,8.14
2023-11-22T23:58:19.694Z,8.10
